sensor_id;sensor_type;location;lat;lon;timestamp;pressure;altitude;pressure_sealevel;temperature;humidity
43878;BME280;29815;48.184;11.268;2023-06-14T00:02:07;95108.31;;;8.77;100.00
43878;BME280;29815;48.184;11.268;2023-06-14T00:04:37;95103.53;;;8.74;100.00
43878;BME280;29815;48.184;11.268;2023-06-14T00:07:09;95105.94;;;8.70;100.00
43878;BME280;29815;48.184;11.268;2023-06-14T00:09:42;95104.84;;;8.66;100.00
43878;BME280;29815;48.184;11.268;2023-06-14T00:12:12;95107.28;;;8.63;100.00
43878;BME280;29815;48.184;11.268;2023-06-14T00:14:42;95107.00;;;8.59;100.00
43878;BME280;29815;48.184;11.268;2023-06-14T00:17:13;95103.78;;;8.57;100.00
43878;BME280;29815;48.184;11.268;2023-06-14T00:19:45;95110.47;;;8.55;100.00
43878;BME280;29815;48.184;11.268;2023-06-14T00:22:15;95102.97;;;8.52;100.00
43878;BME280;29815;48.184;11.268;2023-06-14T00:24:44;95099.75;;;8.49;100.00
43878;BME280;29815;48.184;11.268;2023-06-14T00:27:14;95093.31;;;8.45;100.00
43878;BME280;29815;48.184;11.268;2023-06-14T00:29:43;95091.97;;;8.43;100.00
43878;BME280;29815;48.184;11.268;2023-06-14T00:32:15;95101.63;;;8.39;100.00
43878;BME280;29815;48.184;11.268;2023-06-14T00:34:44;95094.91;;;8.36;100.00
43878;BME280;29815;48.184;11.268;2023-06-14T00:37:14;95098.94;;;8.34;100.00
43878;BME280;29815;48.184;11.268;2023-06-14T00:39:43;95104.78;;;8.31;100.00
43878;BME280;29815;48.184;11.268;2023-06-14T00:42:24;95101.56;;;8.24;100.00
43878;BME280;29815;48.184;11.268;2023-06-14T00:44:54;95095.94;;;8.20;100.00
43878;BME280;29815;48.184;11.268;2023-06-14T00:47:26;95097.53;;;8.16;100.00
43878;BME280;29815;48.184;11.268;2023-06-14T00:49:57;95098.88;;;8.13;100.00
43878;BME280;29815;48.184;11.268;2023-06-14T00:52:27;95099.41;;;8.10;100.00
43878;BME280;29815;48.184;11.268;2023-06-14T00:54:58;95104.22;;;8.08;100.00
43878;BME280;29815;48.184;11.268;2023-06-14T00:57:30;95103.41;;;8.08;100.00
43878;BME280;29815;48.184;11.268;2023-06-14T00:59:59;95101.78;;;8.02;100.00
43878;BME280;29815;48.184;11.268;2023-06-14T01:02:31;95100.16;;;7.96;100.00
43878;BME280;29815;48.184;11.268;2023-06-14T01:05:01;95091.31;;;7.90;100.00
43878;BME280;29815;48.184;11.268;2023-06-14T01:07:43;95099.34;;;7.85;100.00
43878;BME280;29815;48.184;11.268;2023-06-14T01:10:37;95098.81;;;7.83;100.00
43878;BME280;29815;48.184;11.268;2023-06-14T01:13:19;95095.84;;;7.79;100.00
43878;BME280;29815;48.184;11.268;2023-06-14T01:15:51;95101.47;;;7.78;100.00
43878;BME280;29815;48.184;11.268;2023-06-14T01:18:23;95094.50;;;7.77;100.00
43878;BME280;29815;48.184;11.268;2023-06-14T01:20:54;95096.38;;;7.76;100.00
43878;BME280;29815;48.184;11.268;2023-06-14T01:23:27;95096.88;;;7.73;100.00
43878;BME280;29815;48.184;11.268;2023-06-14T01:26:01;95099.03;;;7.71;100.00
43878;BME280;29815;48.184;11.268;2023-06-14T01:28:33;95104.09;;;7.68;100.00
43878;BME280;29815;48.184;11.268;2023-06-14T01:31:06;95100.91;;;7.66;100.00
43878;BME280;29815;48.184;11.268;2023-06-14T01:33:40;95097.94;;;7.62;100.00
43878;BME280;29815;48.184;11.268;2023-06-14T01:36:10;95085.06;;;7.59;100.00
43878;BME280;29815;48.184;11.268;2023-06-14T01:38:42;95092.56;;;7.57;100.00
43878;BME280;29815;48.184;11.268;2023-06-14T01:41:14;95086.09;;;7.53;100.00
43878;BME280;29815;48.184;11.268;2023-06-14T01:43:44;95086.06;;;7.48;100.00
43878;BME280;29815;48.184;11.268;2023-06-14T01:46:15;95090.59;;;7.42;100.00
43878;BME280;29815;48.184;11.268;2023-06-14T01:48:45;95083.88;;;7.40;100.00
43878;BME280;29815;48.184;11.268;2023-06-14T01:51:15;95086.06;;;7.38;100.00
43878;BME280;29815;48.184;11.268;2023-06-14T01:53:46;95078.28;;;7.36;100.00
43878;BME280;29815;48.184;11.268;2023-06-14T01:56:16;95080.66;;;7.33;100.00
43878;BME280;29815;48.184;11.268;2023-06-14T01:58:49;95084.94;;;7.29;100.00
43878;BME280;29815;48.184;11.268;2023-06-14T02:01:21;95081.16;;;7.25;100.00
43878;BME280;29815;48.184;11.268;2023-06-14T02:03:51;95081.69;;;7.22;100.00
43878;BME280;29815;48.184;11.268;2023-06-14T02:06:21;95090.22;;;7.19;100.00
43878;BME280;29815;48.184;11.268;2023-06-14T02:08:52;95087.53;;;7.19;100.00
43878;BME280;29815;48.184;11.268;2023-06-14T02:11:22;95093.97;;;7.18;100.00
43878;BME280;29815;48.184;11.268;2023-06-14T02:13:52;95088.88;;;7.16;100.00
43878;BME280;29815;48.184;11.268;2023-06-14T02:16:23;95080.84;;;7.16;100.00
43878;BME280;29815;48.184;11.268;2023-06-14T02:18:53;95085.94;;;7.18;100.00
43878;BME280;29815;48.184;11.268;2023-06-14T02:21:24;95082.16;;;7.13;100.00
43878;BME280;29815;48.184;11.268;2023-06-14T02:23:55;95084.56;;;7.10;100.00
43878;BME280;29815;48.184;11.268;2023-06-14T02:26:28;95085.88;;;7.07;100.00
43878;BME280;29815;48.184;11.268;2023-06-14T02:28:58;95088.03;;;7.05;100.00
43878;BME280;29815;48.184;11.268;2023-06-14T02:31:28;95079.44;;;7.03;100.00
43878;BME280;29815;48.184;11.268;2023-06-14T02:33:58;95080.75;;;7.01;100.00
43878;BME280;29815;48.184;11.268;2023-06-14T02:36:28;95078.59;;;6.98;100.00
43878;BME280;29815;48.184;11.268;2023-06-14T02:39:02;95082.34;;;6.97;100.00
43878;BME280;29815;48.184;11.268;2023-06-14T02:41:31;95085.28;;;6.95;100.00
43878;BME280;29815;48.184;11.268;2023-06-14T02:44:01;95082.59;;;6.95;100.00
43878;BME280;29815;48.184;11.268;2023-06-14T02:46:31;95080.44;;;6.92;100.00
43878;BME280;29815;48.184;11.268;2023-06-14T02:49:01;95083.09;;;6.92;100.00
43878;BME280;29815;48.184;11.268;2023-06-14T02:51:32;95084.16;;;6.91;100.00
43878;BME280;29815;48.184;11.268;2023-06-14T02:54:03;95089.78;;;6.90;100.00
43878;BME280;29815;48.184;11.268;2023-06-14T02:56:32;95086.81;;;6.86;100.00
43878;BME280;29815;48.184;11.268;2023-06-14T02:59:02;95093.22;;;6.85;100.00
43878;BME280;29815;48.184;11.268;2023-06-14T03:01:33;95091.09;;;6.82;100.00
43878;BME280;29815;48.184;11.268;2023-06-14T03:04:07;95090.28;;;6.82;100.00
43878;BME280;29815;48.184;11.268;2023-06-14T03:06:40;95094.53;;;6.77;100.00
43878;BME280;29815;48.184;11.268;2023-06-14T03:09:14;95086.72;;;6.71;100.00
43878;BME280;29815;48.184;11.268;2023-06-14T03:11:44;95093.63;;;6.67;100.00
43878;BME280;29815;48.184;11.268;2023-06-14T03:14:15;95096.00;;;6.63;100.00
43878;BME280;29815;48.184;11.268;2023-06-14T03:16:46;95098.69;;;6.63;100.00
43878;BME280;29815;48.184;11.268;2023-06-14T03:19:19;95095.22;;;6.63;100.00
43878;BME280;29815;48.184;11.268;2023-06-14T03:21:49;95094.41;;;6.62;100.00
43878;BME280;29815;48.184;11.268;2023-06-14T03:24:20;95097.88;;;6.63;100.00
43878;BME280;29815;48.184;11.268;2023-06-14T03:26:50;95093.59;;;6.62;100.00
43878;BME280;29815;48.184;11.268;2023-06-14T03:29:20;95097.88;;;6.63;100.00
43878;BME280;29815;48.184;11.268;2023-06-14T03:31:58;95097.06;;;6.62;100.00
43878;BME280;29815;48.184;11.268;2023-06-14T03:34:35;95103.22;;;6.63;100.00
43878;BME280;29815;48.184;11.268;2023-06-14T03:37:08;95100.81;;;6.61;100.00
43878;BME280;29815;48.184;11.268;2023-06-14T03:39:40;95101.38;;;6.63;100.00
43878;BME280;29815;48.184;11.268;2023-06-14T03:42:17;95109.94;;;6.65;100.00
43878;BME280;29815;48.184;11.268;2023-06-14T03:44:48;95111.81;;;6.65;100.00
43878;BME280;29815;48.184;11.268;2023-06-14T03:47:20;95113.41;;;6.66;100.00
43878;BME280;29815;48.184;11.268;2023-06-14T03:49:50;95116.34;;;6.64;100.00
43878;BME280;29815;48.184;11.268;2023-06-14T03:52:19;95113.16;;;6.67;100.00
43878;BME280;29815;48.184;11.268;2023-06-14T03:54:51;95119.88;;;6.70;100.00
43878;BME280;29815;48.184;11.268;2023-06-14T03:57:24;95117.75;;;6.72;100.00
43878;BME280;29815;48.184;11.268;2023-06-14T03:59:55;95120.97;;;6.74;100.00
43878;BME280;29815;48.184;11.268;2023-06-14T04:02:26;95137.06;;;6.79;100.00
43878;BME280;29815;48.184;11.268;2023-06-14T04:04:56;95139.47;;;6.81;100.00
43878;BME280;29815;48.184;11.268;2023-06-14T04:07:29;95143.53;;;6.83;100.00
43878;BME280;29815;48.184;11.268;2023-06-14T04:10:00;95142.72;;;6.83;100.00
43878;BME280;29815;48.184;11.268;2023-06-14T04:12:29;95140.56;;;6.85;100.00
43878;BME280;29815;48.184;11.268;2023-06-14T04:15:00;95140.59;;;6.90;100.00
43878;BME280;29815;48.184;11.268;2023-06-14T04:17:47;95146.25;;;6.93;100.00
43878;BME280;29815;48.184;11.268;2023-06-14T04:20:17;95155.38;;;6.97;100.00
43878;BME280;29815;48.184;11.268;2023-06-14T04:22:48;95147.66;;;7.01;100.00
43878;BME280;29815;48.184;11.268;2023-06-14T04:25:19;95158.13;;;7.07;100.00
43878;BME280;29815;48.184;11.268;2023-06-14T04:27:53;95150.94;;;7.13;100.00
43878;BME280;29815;48.184;11.268;2023-06-14T04:30:23;95149.09;;;7.19;100.00
43878;BME280;29815;48.184;11.268;2023-06-14T04:32:54;95159.31;;;7.27;100.00
43878;BME280;29815;48.184;11.268;2023-06-14T04:35:25;95156.72;;;7.37;100.00
43878;BME280;29815;48.184;11.268;2023-06-14T04:37:56;95153.31;;;7.52;100.00
43878;BME280;29815;48.184;11.268;2023-06-14T04:40:27;95155.78;;;7.68;100.00
43878;BME280;29815;48.184;11.268;2023-06-14T04:42:56;95153.19;;;7.84;100.00
43878;BME280;29815;48.184;11.268;2023-06-14T04:45:26;95165.31;;;8.01;100.00
43878;BME280;29815;48.184;11.268;2023-06-14T04:48:00;95171.28;;;8.19;100.00
43878;BME280;29815;48.184;11.268;2023-06-14T04:50:30;95164.63;;;8.36;100.00
43878;BME280;29815;48.184;11.268;2023-06-14T04:53:01;95164.13;;;8.55;100.00
43878;BME280;29815;48.184;11.268;2023-06-14T04:55:32;95171.13;;;8.71;100.00
43878;BME280;29815;48.184;11.268;2023-06-14T04:58:03;95166.56;;;8.87;100.00
43878;BME280;29815;48.184;11.268;2023-06-14T05:00:33;95168.16;;;9.03;100.00
43878;BME280;29815;48.184;11.268;2023-06-14T05:03:03;95166.81;;;9.15;100.00
43878;BME280;29815;48.184;11.268;2023-06-14T05:05:34;95170.31;;;9.26;100.00
43878;BME280;29815;48.184;11.268;2023-06-14T05:08:04;95173.22;;;9.40;100.00
43878;BME280;29815;48.184;11.268;2023-06-14T05:10:35;95175.63;;;9.52;100.00
43878;BME280;29815;48.184;11.268;2023-06-14T05:13:06;95178.00;;;9.63;100.00
43878;BME280;29815;48.184;11.268;2023-06-14T05:15:35;95179.59;;;9.79;100.00
43878;BME280;29815;48.184;11.268;2023-06-14T05:18:05;95169.06;;;9.93;100.00
43878;BME280;29815;48.184;11.268;2023-06-14T05:20:38;95171.69;;;10.08;100.00
43878;BME280;29815;48.184;11.268;2023-06-14T05:23:09;95172.19;;;10.21;100.00
43878;BME280;29815;48.184;11.268;2023-06-14T05:25:44;95170.00;;;10.33;100.00
43878;BME280;29815;48.184;11.268;2023-06-14T05:28:14;95168.84;;;10.44;100.00
43878;BME280;29815;48.184;11.268;2023-06-14T05:30:44;95163.13;;;10.56;100.00
43878;BME280;29815;48.184;11.268;2023-06-14T05:33:14;95179.44;;;10.69;100.00
43878;BME280;29815;48.184;11.268;2023-06-14T05:35:43;95181.50;;;10.82;100.00
43878;BME280;29815;48.184;11.268;2023-06-14T05:38:13;95186.78;;;10.98;100.00
43878;BME280;29815;48.184;11.268;2023-06-14T05:40:44;95184.25;;;11.11;100.00
43878;BME280;29815;48.184;11.268;2023-06-14T05:43:14;95183.31;;;11.26;100.00
43878;BME280;29815;48.184;11.268;2023-06-14T05:45:43;95187.78;;;11.41;100.00
43878;BME280;29815;48.184;11.268;2023-06-14T05:48:13;95192.50;;;11.54;100.00
43878;BME280;29815;48.184;11.268;2023-06-14T05:50:42;95190.75;;;11.68;100.00
43878;BME280;29815;48.184;11.268;2023-06-14T05:53:13;95189.78;;;11.83;100.00
43878;BME280;29815;48.184;11.268;2023-06-14T05:55:44;95187.22;;;11.97;100.00
43878;BME280;29815;48.184;11.268;2023-06-14T05:58:13;95181.41;;;12.08;100.00
43878;BME280;29815;48.184;11.268;2023-06-14T06:00:43;95181.53;;;12.22;100.00
43878;BME280;29815;48.184;11.268;2023-06-14T06:03:14;95193.50;;;12.35;100.00
43878;BME280;29815;48.184;11.268;2023-06-14T06:05:43;95183.91;;;12.47;100.00
43878;BME280;29815;48.184;11.268;2023-06-14T06:08:13;95183.97;;;12.61;100.00
43878;BME280;29815;48.184;11.268;2023-06-14T06:10:46;95192.97;;;12.75;100.00
43878;BME280;29815;48.184;11.268;2023-06-14T06:13:16;95197.84;;;12.92;100.00
43878;BME280;29815;48.184;11.268;2023-06-14T06:15:45;95194.63;;;13.09;100.00
43878;BME280;29815;48.184;11.268;2023-06-14T06:18:15;95200.09;;;13.23;100.00
43878;BME280;29815;48.184;11.268;2023-06-14T06:20:45;95193.66;;;13.37;100.00
43878;BME280;29815;48.184;11.268;2023-06-14T06:23:15;95199.91;;;13.51;100.00
43878;BME280;29815;48.184;11.268;2023-06-14T06:25:46;95198.03;;;13.66;100.00
43878;BME280;29815;48.184;11.268;2023-06-14T06:28:16;95201.06;;;13.78;100.00
43878;BME280;29815;48.184;11.268;2023-06-14T06:30:45;95195.16;;;13.89;100.00
43878;BME280;29815;48.184;11.268;2023-06-14T06:33:15;95200.88;;;14.02;100.00
43878;BME280;29815;48.184;11.268;2023-06-14T06:35:45;95206.00;;;14.17;100.00
43878;BME280;29815;48.184;11.268;2023-06-14T06:38:14;95205.19;;;14.30;100.00
43878;BME280;29815;48.184;11.268;2023-06-14T06:40:48;95205.22;;;14.44;100.00
43878;BME280;29815;48.184;11.268;2023-06-14T06:43:17;95214.94;;;14.59;100.00
43878;BME280;29815;48.184;11.268;2023-06-14T06:45:50;95208.41;;;14.73;100.00
43878;BME280;29815;48.184;11.268;2023-06-14T06:48:19;95200.53;;;14.85;99.58
43878;BME280;29815;48.184;11.268;2023-06-14T06:50:49;95212.16;;;15.00;100.00
43878;BME280;29815;48.184;11.268;2023-06-14T06:53:19;95208.28;;;15.14;98.94
43878;BME280;29815;48.184;11.268;2023-06-14T06:56:08;95209.53;;;15.31;95.74
43878;BME280;29815;48.184;11.268;2023-06-14T06:58:38;95214.47;;;15.51;94.84
43878;BME280;29815;48.184;11.268;2023-06-14T07:01:07;95206.13;;;15.70;89.36
43878;BME280;29815;48.184;11.268;2023-06-14T07:03:38;95203.66;;;15.82;87.21
43878;BME280;29815;48.184;11.268;2023-06-14T07:06:07;95211.09;;;15.99;83.53
43878;BME280;29815;48.184;11.268;2023-06-14T07:08:37;95202.06;;;16.12;85.21
43878;BME280;29815;48.184;11.268;2023-06-14T07:11:09;95212.78;;;16.25;82.24
43878;BME280;29815;48.184;11.268;2023-06-14T07:13:38;95217.66;;;16.37;77.28
43878;BME280;29815;48.184;11.268;2023-06-14T07:16:08;95213.19;;;16.50;79.38
43878;BME280;29815;48.184;11.268;2023-06-14T07:18:38;95214.22;;;16.71;78.46
43878;BME280;29815;48.184;11.268;2023-06-14T07:21:07;95221.00;;;16.91;76.20
43878;BME280;29815;48.184;11.268;2023-06-14T07:23:37;95220.22;;;17.08;73.08
43878;BME280;29815;48.184;11.268;2023-06-14T07:26:08;95218.78;;;17.27;68.04
43878;BME280;29815;48.184;11.268;2023-06-14T07:28:38;95222.16;;;17.42;66.15
43878;BME280;29815;48.184;11.268;2023-06-14T07:31:08;95222.16;;;17.50;66.58
43878;BME280;29815;48.184;11.268;2023-06-14T07:33:37;95226.78;;;17.67;65.91
43878;BME280;29815;48.184;11.268;2023-06-14T07:36:09;95222.91;;;17.85;64.80
43878;BME280;29815;48.184;11.268;2023-06-14T07:38:38;95229.78;;;18.00;62.81
43878;BME280;29815;48.184;11.268;2023-06-14T07:41:10;95228.44;;;18.15;63.17
43878;BME280;29815;48.184;11.268;2023-06-14T07:43:39;95232.56;;;18.30;62.85
43878;BME280;29815;48.184;11.268;2023-06-14T07:46:09;95233.63;;;18.46;60.65
43878;BME280;29815;48.184;11.268;2023-06-14T07:48:39;95234.69;;;18.62;60.27
43878;BME280;29815;48.184;11.268;2023-06-14T07:51:08;95227.56;;;18.78;60.37
43878;BME280;29815;48.184;11.268;2023-06-14T07:53:38;95233.69;;;18.96;59.33
43878;BME280;29815;48.184;11.268;2023-06-14T07:56:10;95229.47;;;19.07;57.25
43878;BME280;29815;48.184;11.268;2023-06-14T07:58:40;95228.84;;;19.22;56.75
43878;BME280;29815;48.184;11.268;2023-06-14T08:01:12;95231.81;;;19.38;56.33
43878;BME280;29815;48.184;11.268;2023-06-14T08:03:42;95229.09;;;19.59;56.59
43878;BME280;29815;48.184;11.268;2023-06-14T08:06:12;95222.31;;;19.77;55.25
43878;BME280;29815;48.184;11.268;2023-06-14T08:08:41;95220.56;;;19.93;54.46
43878;BME280;29815;48.184;11.268;2023-06-14T08:11:12;95225.50;;;20.12;53.67
43878;BME280;29815;48.184;11.268;2023-06-14T08:13:42;95219.84;;;20.29;52.40
43878;BME280;29815;48.184;11.268;2023-06-14T08:16:11;95222.97;;;20.40;52.22
43878;BME280;29815;48.184;11.268;2023-06-14T08:18:41;95219.88;;;20.54;51.82
43878;BME280;29815;48.184;11.268;2023-06-14T08:21:11;95226.63;;;20.69;50.52
43878;BME280;29815;48.184;11.268;2023-06-14T08:23:42;95226.59;;;20.81;50.23
43878;BME280;29815;48.184;11.268;2023-06-14T08:26:13;95226.28;;;20.82;48.78
43878;BME280;29815;48.184;11.268;2023-06-14T08:28:43;95232.19;;;20.97;49.72
43878;BME280;29815;48.184;11.268;2023-06-14T08:31:12;95235.38;;;21.11;48.02
43878;BME280;29815;48.184;11.268;2023-06-14T08:33:42;95232.88;;;21.30;48.53
43878;BME280;29815;48.184;11.268;2023-06-14T08:36:12;95236.00;;;21.44;48.28
43878;BME280;29815;48.184;11.268;2023-06-14T08:38:41;95237.25;;;21.59;45.96
43878;BME280;29815;48.184;11.268;2023-06-14T08:41:13;95241.28;;;21.77;45.29
43878;BME280;29815;48.184;11.268;2023-06-14T08:43:50;95244.41;;;21.91;43.74
43878;BME280;29815;48.184;11.268;2023-06-14T08:46:19;95238.66;;;21.96;43.26
43878;BME280;29815;48.184;11.268;2023-06-14T08:48:51;95241.03;;;22.10;43.91
43878;BME280;29815;48.184;11.268;2023-06-14T08:51:22;95251.94;;;22.22;43.54
43878;BME280;29815;48.184;11.268;2023-06-14T08:53:56;95243.84;;;22.42;43.35
43878;BME280;29815;48.184;11.268;2023-06-14T08:56:28;95239.16;;;22.58;42.43
43878;BME280;29815;48.184;11.268;2023-06-14T08:58:59;95238.19;;;22.66;42.25
43878;BME280;29815;48.184;11.268;2023-06-14T09:01:34;95240.22;;;22.85;42.44
43878;BME280;29815;48.184;11.268;2023-06-14T09:04:04;95234.00;;;23.04;41.86
43878;BME280;29815;48.184;11.268;2023-06-14T09:06:34;95238.69;;;23.19;41.50
43878;BME280;29815;48.184;11.268;2023-06-14T09:09:05;95241.72;;;23.33;41.30
43878;BME280;29815;48.184;11.268;2023-06-14T09:11:36;95235.41;;;23.48;40.75
43878;BME280;29815;48.184;11.268;2023-06-14T09:14:06;95236.44;;;23.59;40.48
43878;BME280;29815;48.184;11.268;2023-06-14T09:16:35;95231.34;;;23.77;39.90
43878;BME280;29815;48.184;11.268;2023-06-14T09:19:05;95242.16;;;23.89;38.98
43878;BME280;29815;48.184;11.268;2023-06-14T09:21:35;95244.06;;;24.05;39.25
43878;BME280;29815;48.184;11.268;2023-06-14T09:24:06;95244.97;;;24.12;38.67
43878;BME280;29815;48.184;11.268;2023-06-14T09:26:38;95232.31;;;24.27;38.50
43878;BME280;29815;48.184;11.268;2023-06-14T09:29:10;95235.94;;;24.31;37.11
43878;BME280;29815;48.184;11.268;2023-06-14T09:31:39;95241.19;;;24.40;37.92
43878;BME280;29815;48.184;11.268;2023-06-14T09:34:09;95238.19;;;24.48;36.97
43878;BME280;29815;48.184;11.268;2023-06-14T09:36:40;95242.91;;;24.71;37.47
43878;BME280;29815;48.184;11.268;2023-06-14T09:39:10;95247.94;;;24.88;36.24
43878;BME280;29815;48.184;11.268;2023-06-14T09:41:41;95244.94;;;24.96;35.81
43878;BME280;29815;48.184;11.268;2023-06-14T09:44:11;95247.50;;;25.09;35.38
43878;BME280;29815;48.184;11.268;2023-06-14T09:46:48;95243.72;;;25.20;35.90
43878;BME280;29815;48.184;11.268;2023-06-14T09:49:18;95245.06;;;25.30;34.72
43878;BME280;29815;48.184;11.268;2023-06-14T09:51:51;95246.75;;;25.38;35.07
43878;BME280;29815;48.184;11.268;2023-06-14T09:54:23;95254.00;;;25.50;34.76
43878;BME280;29815;48.184;11.268;2023-06-14T09:56:55;95250.16;;;25.58;33.70
43878;BME280;29815;48.184;11.268;2023-06-14T09:59:27;95247.56;;;25.65;33.40
43878;BME280;29815;48.184;11.268;2023-06-14T10:02:01;95246.00;;;25.68;34.08
43878;BME280;29815;48.184;11.268;2023-06-14T10:04:35;95257.47;;;25.70;32.80
43878;BME280;29815;48.184;11.268;2023-06-14T10:07:05;95245.72;;;25.76;33.08
43878;BME280;29815;48.184;11.268;2023-06-14T10:09:35;95247.88;;;25.90;32.68
43878;BME280;29815;48.184;11.268;2023-06-14T10:12:07;95242.81;;;25.95;32.44
43878;BME280;29815;48.184;11.268;2023-06-14T10:14:38;95249.06;;;25.92;32.12
43878;BME280;29815;48.184;11.268;2023-06-14T10:17:10;95239.00;;;26.07;32.47
43878;BME280;29815;48.184;11.268;2023-06-14T10:19:55;95245.09;;;26.23;32.00
43878;BME280;29815;48.184;11.268;2023-06-14T10:22:32;95248.50;;;26.43;31.71
43878;BME280;29815;48.184;11.268;2023-06-14T10:25:07;95243.84;;;26.54;32.68
43878;BME280;29815;48.184;11.268;2023-06-14T10:27:44;95238.19;;;26.81;33.61
43878;BME280;29815;48.184;11.268;2023-06-14T10:30:15;95233.31;;;27.04;32.82
43878;BME280;29815;48.184;11.268;2023-06-14T10:33:04;95241.34;;;27.27;32.60
43878;BME280;29815;48.184;11.268;2023-06-14T10:35:36;95232.72;;;27.39;32.70
43878;BME280;29815;48.184;11.268;2023-06-14T10:38:10;95228.84;;;27.47;32.57
43878;BME280;29815;48.184;11.268;2023-06-14T10:40:41;95231.84;;;27.24;32.82
43878;BME280;29815;48.184;11.268;2023-06-14T10:43:24;95229.84;;;26.74;32.60
43878;BME280;29815;48.184;11.268;2023-06-14T10:46:17;95227.50;;;26.02;33.26
43878;BME280;29815;48.184;11.268;2023-06-14T10:48:57;95232.50;;;25.89;33.95
43878;BME280;29815;48.184;11.268;2023-06-14T10:51:30;95228.06;;;26.14;33.96
43878;BME280;29815;48.184;11.268;2023-06-14T10:54:14;95226.84;;;26.12;33.71
43878;BME280;29815;48.184;11.268;2023-06-14T10:56:46;95235.34;;;26.00;34.68
43878;BME280;29815;48.184;11.268;2023-06-14T10:59:19;95228.75;;;25.74;34.05
43878;BME280;29815;48.184;11.268;2023-06-14T11:01:58;95237.69;;;25.94;34.42
43878;BME280;29815;48.184;11.268;2023-06-14T11:04:47;95234.63;;;26.36;33.79
43878;BME280;29815;48.184;11.268;2023-06-14T11:07:37;95243.34;;;26.86;33.25
43878;BME280;29815;48.184;11.268;2023-06-14T11:10:22;95236.97;;;27.22;32.73
43878;BME280;29815;48.184;11.268;2023-06-14T11:12:56;95238.34;;;27.53;31.79
43878;BME280;29815;48.184;11.268;2023-06-14T11:15:30;95229.84;;;27.80;31.19
43878;BME280;29815;48.184;11.268;2023-06-14T11:18:01;95225.13;;;27.91;31.53
43878;BME280;29815;48.184;11.268;2023-06-14T11:20:32;95230.38;;;28.14;31.93
43878;BME280;29815;48.184;11.268;2023-06-14T11:23:03;95225.69;;;28.28;30.96
43878;BME280;29815;48.184;11.268;2023-06-14T11:25:33;95224.53;;;28.37;31.46
43878;BME280;29815;48.184;11.268;2023-06-14T11:28:03;95225.31;;;28.48;30.99
43878;BME280;29815;48.184;11.268;2023-06-14T11:30:34;95225.75;;;28.57;31.38
43878;BME280;29815;48.184;11.268;2023-06-14T11:33:04;95231.31;;;28.64;30.45
43878;BME280;29815;48.184;11.268;2023-06-14T11:35:34;95226.56;;;28.79;30.77
43878;BME280;29815;48.184;11.268;2023-06-14T11:38:04;95238.88;;;28.88;29.74
43878;BME280;29815;48.184;11.268;2023-06-14T11:40:34;95225.81;;;28.92;29.88
43878;BME280;29815;48.184;11.268;2023-06-14T11:43:03;95219.47;;;29.10;29.63
43878;BME280;29815;48.184;11.268;2023-06-14T11:45:35;95224.59;;;29.11;29.72
43878;BME280;29815;48.184;11.268;2023-06-14T11:48:06;95221.84;;;29.22;28.85
43878;BME280;29815;48.184;11.268;2023-06-14T11:50:38;95221.03;;;29.14;28.61
43878;BME280;29815;48.184;11.268;2023-06-14T11:53:08;95209.16;;;29.24;29.74
43878;BME280;29815;48.184;11.268;2023-06-14T11:55:38;95214.31;;;29.26;29.17
43878;BME280;29815;48.184;11.268;2023-06-14T11:58:10;95216.69;;;29.45;29.46
43878;BME280;29815;48.184;11.268;2023-06-14T12:00:42;95206.38;;;29.49;29.00
43878;BME280;29815;48.184;11.268;2023-06-14T12:03:12;95207.13;;;29.60;28.46
43878;BME280;29815;48.184;11.268;2023-06-14T12:05:42;95206.72;;;29.66;28.19
43878;BME280;29815;48.184;11.268;2023-06-14T12:08:11;95215.06;;;29.55;28.33
43878;BME280;29815;48.184;11.268;2023-06-14T12:10:51;95212.25;;;29.66;28.46
43878;BME280;29815;48.184;11.268;2023-06-14T12:13:25;95217.75;;;29.83;28.11
43878;BME280;29815;48.184;11.268;2023-06-14T12:15:57;95211.81;;;29.81;27.50
43878;BME280;29815;48.184;11.268;2023-06-14T12:18:34;95204.59;;;30.09;30.29
43878;BME280;29815;48.184;11.268;2023-06-14T12:21:05;95203.63;;;30.37;28.07
43878;BME280;29815;48.184;11.268;2023-06-14T12:23:44;95204.03;;;30.39;27.91
43878;BME280;29815;48.184;11.268;2023-06-14T12:26:15;95211.09;;;30.54;27.39
43878;BME280;29815;48.184;11.268;2023-06-14T12:28:47;95209.81;;;30.69;27.40
43878;BME280;29815;48.184;11.268;2023-06-14T12:31:19;95213.28;;;30.84;27.89
43878;BME280;29815;48.184;11.268;2023-06-14T12:33:48;95222.88;;;30.72;26.37
43878;BME280;29815;48.184;11.268;2023-06-14T12:36:20;95212.84;;;30.26;26.65
43878;BME280;29815;48.184;11.268;2023-06-14T12:38:49;95201.72;;;30.30;28.46
43878;BME280;29815;48.184;11.268;2023-06-14T12:41:21;95203.69;;;30.29;27.03
43878;BME280;29815;48.184;11.268;2023-06-14T12:43:51;95220.03;;;30.13;26.20
43878;BME280;29815;48.184;11.268;2023-06-14T12:46:22;95197.88;;;30.06;26.21
43878;BME280;29815;48.184;11.268;2023-06-14T12:48:52;95213.28;;;30.11;27.60
43878;BME280;29815;48.184;11.268;2023-06-14T12:51:21;95211.25;;;30.22;27.45
43878;BME280;29815;48.184;11.268;2023-06-14T12:53:52;95207.66;;;30.32;27.35
43878;BME280;29815;48.184;11.268;2023-06-14T12:56:22;95211.50;;;30.49;27.23
43878;BME280;29815;48.184;11.268;2023-06-14T12:58:52;95217.06;;;30.45;26.72
43878;BME280;29815;48.184;11.268;2023-06-14T13:01:23;95214.25;;;30.63;28.07
43878;BME280;29815;48.184;11.268;2023-06-14T13:03:52;95216.97;;;30.67;26.98
43878;BME280;29815;48.184;11.268;2023-06-14T13:06:23;95220.44;;;30.81;26.88
43878;BME280;29815;48.184;11.268;2023-06-14T13:08:53;95224.84;;;30.75;26.59
43878;BME280;29815;48.184;11.268;2023-06-14T13:11:25;95227.41;;;30.41;26.41